Terminal Aerodrome Forecast
Issued by NWS

Home | Current Version | Previous Version | Text Only | Print | Product List | Glossary On
Versions: 1 2 3 4 5 6 7 8 9 10 11 12 13
000
FTUS42 KMLB 300531
TAFFPR
TAF
KFPR 300531Z 3006/3106 08005KT P6SM VCSH SCT025
      TEMPO 3008/3012 -SHRA BKN030
     FM301200 08004KT P6SM VCSH SCT030
      TEMPO 3012/3015 -SHRA BKN030
     FM301500 09008KT P6SM VCSH SCT035
     FM301800 09011KT P6SM SCT035
     FM310100 10007KT P6SM SCT030=

USA.gov is the U.S. government's official web portal to all federal, state and local government web resources and services.